sensor_id;sensor_type;location;lat;lon;timestamp;pressure;altitude;pressure_sealevel;temperature;humidity
77824;BME280;67015;46.242;6.028;2023-02-27T00:29:15;95921.0;;;-0.31;61.57
77824;BME280;67015;46.242;6.028;2023-02-27T00:59:15;95966.0;;;-0.4;62.5
77824;BME280;67015;46.242;6.028;2023-02-27T01:29:15;95975.0;;;-0.51;63.0
77824;BME280;67015;46.242;6.028;2023-02-27T01:59:15;96002.0;;;-0.56;63.04
77824;BME280;67015;46.242;6.028;2023-02-27T02:59:16;96031.0;;;-0.67;63.26
77824;BME280;67015;46.242;6.028;2023-02-27T03:59:14;96053.0;;;-0.84;63.87
77824;BME280;67015;46.242;6.028;2023-02-27T04:29:15;96102.0;;;-0.9700001;64.7
77824;BME280;67015;46.242;6.028;2023-02-27T04:59:15;96137.0;;;-1.02;64.75
77824;BME280;67015;46.242;6.028;2023-02-27T05:29:16;96157.0;;;-1.14;65.24
77824;BME280;67015;46.242;6.028;2023-02-27T05:59:15;96187.0;;;-1.22;67.38
77824;BME280;67015;46.242;6.028;2023-02-27T06:29:15;96219.0;;;-1.13;66.64
77824;BME280;67015;46.242;6.028;2023-02-27T06:59:15;96269.0;;;-0.98;65.8
77824;BME280;67015;46.242;6.028;2023-02-27T07:29:15;96311.0;;;-0.7;64.33
77824;BME280;67015;46.242;6.028;2023-02-27T07:59:15;96350.0;;;-0.21;63.95
77824;BME280;67015;46.242;6.028;2023-02-27T08:29:15;96377.0;;;0.58;60.01
77824;BME280;67015;46.242;6.028;2023-02-27T08:59:15;96403.0;;;0.67;59.8
77824;BME280;67015;46.242;6.028;2023-02-27T09:29:15;96447.0;;;0.93;59.03
77824;BME280;67015;46.242;6.028;2023-02-27T09:59:16;96463.0;;;3.39;52.66
77824;BME280;67015;46.242;6.028;2023-02-27T10:29:16;96498.0;;;4.71;48.84
77824;BME280;67015;46.242;6.028;2023-02-27T10:59:16;96505.0;;;4.76;48.12
77824;BME280;67015;46.242;6.028;2023-02-27T11:29:15;96519.0;;;5.15;48.29
77824;BME280;67015;46.242;6.028;2023-02-27T11:59:19;96520.0;;;5.31;47.02
77824;BME280;67015;46.242;6.028;2023-02-27T12:29:17;96506.0;;;5.55;48.04
77824;BME280;67015;46.242;6.028;2023-02-27T12:59:17;96495.0;;;5.43;47.59
77824;BME280;67015;46.242;6.028;2023-02-27T13:29:15;96505.0;;;5.39;49.08
77824;BME280;67015;46.242;6.028;2023-02-27T13:59:18;96494.0;;;5.25;48.57
77824;BME280;67015;46.242;6.028;2023-02-27T14:29:16;96515.0;;;5.11;50.07
77824;BME280;67015;46.242;6.028;2023-02-27T14:59:19;96524.0;;;4.66;50.46
77824;BME280;67015;46.242;6.028;2023-02-27T15:29:15;96540.0;;;3.48;54.04
77824;BME280;67015;46.242;6.028;2023-02-27T15:59:15;96564.0;;;2.66;57.17
77824;BME280;67015;46.242;6.028;2023-02-27T16:29:14;96601.0;;;2.2;58.47
77824;BME280;67015;46.242;6.028;2023-02-27T16:59:21;96627.0;;;1.54;60.39
77824;BME280;67015;46.242;6.028;2023-02-27T17:29:14;96665.0;;;1.11;62.64
77824;BME280;67015;46.242;6.028;2023-02-27T17:59:14;96713.0;;;0.99;64.55
77824;BME280;67015;46.242;6.028;2023-02-27T18:29:14;96743.0;;;0.83;65.3
77824;BME280;67015;46.242;6.028;2023-02-27T18:59:14;96756.0;;;0.82;65.94
77824;BME280;67015;46.242;6.028;2023-02-27T19:29:14;96756.0;;;0.76;67.05
77824;BME280;67015;46.242;6.028;2023-02-27T19:59:14;96770.0;;;0.65;67.74
77824;BME280;67015;46.242;6.028;2023-02-27T20:29:15;96784.0;;;0.63;68.88
77824;BME280;67015;46.242;6.028;2023-02-27T20:59:15;96786.0;;;0.51;69.03
77824;BME280;67015;46.242;6.028;2023-02-27T21:29:14;96791.0;;;0.35;69.4
77824;BME280;67015;46.242;6.028;2023-02-27T21:59:14;96792.0;;;0.2;69.82
77824;BME280;67015;46.242;6.028;2023-02-27T22:29:16;96810.0;;;0.19;70.01
77824;BME280;67015;46.242;6.028;2023-02-27T22:59:14;96809.0;;;0.08;70.15
77824;BME280;67015;46.242;6.028;2023-02-27T23:29:14;96806.0;;;-0.01;70.92
77824;BME280;67015;46.242;6.028;2023-02-27T23:59:14;96812.0;;;-0.06;71.6
